sensor_id;sensor_type;location;lat;lon;timestamp;P1;durP1;ratioP1;P2;durP2;ratioP2
18505;SDS011;9382;53.242;10.438;2022-11-20T00:01:05;12.07;;;8.40;;
18505;SDS011;9382;53.242;10.438;2022-11-20T00:03:32;14.10;;;8.80;;
18505;SDS011;9382;53.242;10.438;2022-11-20T00:06:01;14.57;;;8.50;;
18505;SDS011;9382;53.242;10.438;2022-11-20T00:08:28;13.00;;;8.33;;
18505;SDS011;9382;53.242;10.438;2022-11-20T00:10:55;13.57;;;8.23;;
18505;SDS011;9382;53.242;10.438;2022-11-20T00:13:22;12.67;;;8.63;;
18505;SDS011;9382;53.242;10.438;2022-11-20T00:15:50;14.00;;;8.53;;
18505;SDS011;9382;53.242;10.438;2022-11-20T00:18:23;13.43;;;8.60;;
18505;SDS011;9382;53.242;10.438;2022-11-20T00:20:50;11.37;;;8.00;;
18505;SDS011;9382;53.242;10.438;2022-11-20T00:23:18;14.67;;;8.33;;
18505;SDS011;9382;53.242;10.438;2022-11-20T00:25:45;14.20;;;8.50;;
18505;SDS011;9382;53.242;10.438;2022-11-20T00:28:11;13.37;;;8.40;;
18505;SDS011;9382;53.242;10.438;2022-11-20T00:30:38;13.80;;;8.80;;
18505;SDS011;9382;53.242;10.438;2022-11-20T00:33:05;12.30;;;8.60;;
18505;SDS011;9382;53.242;10.438;2022-11-20T00:35:31;12.73;;;8.50;;
18505;SDS011;9382;53.242;10.438;2022-11-20T00:37:58;13.73;;;9.10;;
18505;SDS011;9382;53.242;10.438;2022-11-20T00:40:26;14.70;;;9.27;;
18505;SDS011;9382;53.242;10.438;2022-11-20T00:42:53;12.00;;;8.93;;
18505;SDS011;9382;53.242;10.438;2022-11-20T00:45:20;11.50;;;8.20;;
18505;SDS011;9382;53.242;10.438;2022-11-20T00:47:46;13.33;;;8.90;;
18505;SDS011;9382;53.242;10.438;2022-11-20T00:50:13;13.40;;;9.10;;
18505;SDS011;9382;53.242;10.438;2022-11-20T00:52:40;12.93;;;9.17;;
18505;SDS011;9382;53.242;10.438;2022-11-20T00:55:07;14.83;;;9.10;;
18505;SDS011;9382;53.242;10.438;2022-11-20T00:57:35;14.23;;;9.50;;
18505;SDS011;9382;53.242;10.438;2022-11-20T01:00:02;13.43;;;9.10;;
18505;SDS011;9382;53.242;10.438;2022-11-20T01:02:29;14.27;;;9.57;;
18505;SDS011;9382;53.242;10.438;2022-11-20T01:04:56;15.03;;;10.00;;
18505;SDS011;9382;53.242;10.438;2022-11-20T01:07:23;13.33;;;9.47;;
18505;SDS011;9382;53.242;10.438;2022-11-20T01:09:49;17.37;;;9.97;;
18505;SDS011;9382;53.242;10.438;2022-11-20T01:12:16;14.80;;;9.60;;
18505;SDS011;9382;53.242;10.438;2022-11-20T01:14:44;14.17;;;10.00;;
18505;SDS011;9382;53.242;10.438;2022-11-20T01:17:11;14.67;;;9.73;;
18505;SDS011;9382;53.242;10.438;2022-11-20T01:19:38;16.37;;;10.10;;
18505;SDS011;9382;53.242;10.438;2022-11-20T01:22:04;16.83;;;10.60;;
18505;SDS011;9382;53.242;10.438;2022-11-20T01:24:31;16.43;;;10.63;;
18505;SDS011;9382;53.242;10.438;2022-11-20T01:26:58;15.03;;;10.33;;
18505;SDS011;9382;53.242;10.438;2022-11-20T01:29:25;15.17;;;10.40;;
18505;SDS011;9382;53.242;10.438;2022-11-20T01:31:53;17.17;;;10.83;;
18505;SDS011;9382;53.242;10.438;2022-11-20T01:34:20;15.57;;;10.97;;
18505;SDS011;9382;53.242;10.438;2022-11-20T01:36:48;14.47;;;10.67;;
18505;SDS011;9382;53.242;10.438;2022-11-20T01:39:15;16.57;;;10.73;;
18505;SDS011;9382;53.242;10.438;2022-11-20T01:41:44;17.23;;;10.43;;
18505;SDS011;9382;53.242;10.438;2022-11-20T01:47:19;16.70;;;10.87;;
18505;SDS011;9382;53.242;10.438;2022-11-20T01:49:50;15.53;;;10.73;;
18505;SDS011;9382;53.242;10.438;2022-11-20T01:52:21;15.50;;;10.43;;
18505;SDS011;9382;53.242;10.438;2022-11-20T01:54:52;17.37;;;10.67;;
18505;SDS011;9382;53.242;10.438;2022-11-20T01:57:22;16.90;;;11.07;;
18505;SDS011;9382;53.242;10.438;2022-11-20T01:59:53;17.30;;;10.70;;
18505;SDS011;9382;53.242;10.438;2022-11-20T02:02:24;16.87;;;11.00;;
18505;SDS011;9382;53.242;10.438;2022-11-20T02:04:52;19.50;;;11.23;;
18505;SDS011;9382;53.242;10.438;2022-11-20T02:07:23;16.90;;;10.87;;
18505;SDS011;9382;53.242;10.438;2022-11-20T02:09:50;16.60;;;10.63;;
18505;SDS011;9382;53.242;10.438;2022-11-20T02:12:17;16.53;;;10.60;;
18505;SDS011;9382;53.242;10.438;2022-11-20T02:14:58;16.00;;;10.30;;
18505;SDS011;9382;53.242;10.438;2022-11-20T02:17:26;16.87;;;10.57;;
18505;SDS011;9382;53.242;10.438;2022-11-20T02:19:53;17.30;;;9.83;;
18505;SDS011;9382;53.242;10.438;2022-11-20T02:22:21;15.80;;;10.40;;
18505;SDS011;9382;53.242;10.438;2022-11-20T02:24:54;17.37;;;10.63;;
18505;SDS011;9382;53.242;10.438;2022-11-20T02:27:21;17.83;;;11.27;;
18505;SDS011;9382;53.242;10.438;2022-11-20T02:29:50;19.07;;;11.57;;
18505;SDS011;9382;53.242;10.438;2022-11-20T02:32:19;17.43;;;10.87;;
18505;SDS011;9382;53.242;10.438;2022-11-20T02:34:46;17.60;;;10.63;;
18505;SDS011;9382;53.242;10.438;2022-11-20T02:37:13;18.90;;;11.13;;
18505;SDS011;9382;53.242;10.438;2022-11-20T02:39:40;17.23;;;10.83;;
18505;SDS011;9382;53.242;10.438;2022-11-20T02:42:10;16.80;;;10.90;;
18505;SDS011;9382;53.242;10.438;2022-11-20T02:44:36;16.50;;;11.00;;
18505;SDS011;9382;53.242;10.438;2022-11-20T02:47:06;17.60;;;10.57;;
18505;SDS011;9382;53.242;10.438;2022-11-20T02:49:33;18.27;;;11.20;;
18505;SDS011;9382;53.242;10.438;2022-11-20T02:52:00;15.13;;;10.77;;
18505;SDS011;9382;53.242;10.438;2022-11-20T02:54:27;16.60;;;10.17;;
18505;SDS011;9382;53.242;10.438;2022-11-20T02:56:54;18.30;;;10.97;;
18505;SDS011;9382;53.242;10.438;2022-11-20T02:59:22;18.53;;;10.80;;
18505;SDS011;9382;53.242;10.438;2022-11-20T03:01:49;16.17;;;9.90;;
18505;SDS011;9382;53.242;10.438;2022-11-20T03:04:15;17.37;;;10.73;;
18505;SDS011;9382;53.242;10.438;2022-11-20T03:06:42;19.37;;;10.47;;
18505;SDS011;9382;53.242;10.438;2022-11-20T03:09:09;16.63;;;10.60;;
18505;SDS011;9382;53.242;10.438;2022-11-20T03:11:36;15.90;;;10.23;;
18505;SDS011;9382;53.242;10.438;2022-11-20T03:14:03;16.50;;;10.70;;
18505;SDS011;9382;53.242;10.438;2022-11-20T03:16:31;19.20;;;10.70;;
18505;SDS011;9382;53.242;10.438;2022-11-20T03:18:58;16.27;;;10.37;;
18505;SDS011;9382;53.242;10.438;2022-11-20T03:21:25;18.13;;;11.77;;
18505;SDS011;9382;53.242;10.438;2022-11-20T03:23:52;19.23;;;11.57;;
18505;SDS011;9382;53.242;10.438;2022-11-20T03:26:20;16.73;;;10.90;;
18505;SDS011;9382;53.242;10.438;2022-11-20T03:28:49;15.80;;;10.03;;
18505;SDS011;9382;53.242;10.438;2022-11-20T03:31:18;16.87;;;10.00;;
18505;SDS011;9382;53.242;10.438;2022-11-20T03:33:48;15.27;;;9.77;;
18505;SDS011;9382;53.242;10.438;2022-11-20T03:36:16;16.13;;;10.03;;
18505;SDS011;9382;53.242;10.438;2022-11-20T03:38:44;16.93;;;9.17;;
18505;SDS011;9382;53.242;10.438;2022-11-20T03:41:13;14.93;;;9.53;;
18505;SDS011;9382;53.242;10.438;2022-11-20T03:43:40;13.40;;;9.30;;
18505;SDS011;9382;53.242;10.438;2022-11-20T03:46:07;13.63;;;9.20;;
18505;SDS011;9382;53.242;10.438;2022-11-20T03:48:34;14.37;;;8.87;;
18505;SDS011;9382;53.242;10.438;2022-11-20T03:51:09;12.70;;;8.63;;
18505;SDS011;9382;53.242;10.438;2022-11-20T03:53:36;15.27;;;9.03;;
18505;SDS011;9382;53.242;10.438;2022-11-20T03:56:03;14.70;;;8.50;;
18505;SDS011;9382;53.242;10.438;2022-11-20T03:58:32;14.37;;;9.77;;
18505;SDS011;9382;53.242;10.438;2022-11-20T04:01:03;15.63;;;8.93;;
18505;SDS011;9382;53.242;10.438;2022-11-20T04:03:30;13.70;;;8.90;;
18505;SDS011;9382;53.242;10.438;2022-11-20T04:06:00;14.63;;;9.00;;
18505;SDS011;9382;53.242;10.438;2022-11-20T04:08:30;15.00;;;9.27;;
18505;SDS011;9382;53.242;10.438;2022-11-20T04:10:56;15.40;;;8.47;;
18505;SDS011;9382;53.242;10.438;2022-11-20T04:13:34;14.63;;;8.60;;
18505;SDS011;9382;53.242;10.438;2022-11-20T04:16:01;12.80;;;8.30;;
18505;SDS011;9382;53.242;10.438;2022-11-20T04:18:27;14.03;;;8.50;;
18505;SDS011;9382;53.242;10.438;2022-11-20T04:20:55;12.47;;;8.70;;
18505;SDS011;9382;53.242;10.438;2022-11-20T04:23:25;13.77;;;8.97;;
18505;SDS011;9382;53.242;10.438;2022-11-20T04:25:53;14.50;;;9.00;;
18505;SDS011;9382;53.242;10.438;2022-11-20T04:28:20;15.87;;;8.23;;
18505;SDS011;9382;53.242;10.438;2022-11-20T04:30:47;24.03;;;8.77;;
18505;SDS011;9382;53.242;10.438;2022-11-20T04:33:14;12.47;;;7.80;;
18505;SDS011;9382;53.242;10.438;2022-11-20T04:35:40;13.07;;;8.53;;
18505;SDS011;9382;53.242;10.438;2022-11-20T04:38:07;13.87;;;8.50;;
18505;SDS011;9382;53.242;10.438;2022-11-20T04:40:34;13.30;;;8.70;;
18505;SDS011;9382;53.242;10.438;2022-11-20T04:43:02;13.03;;;8.97;;
18505;SDS011;9382;53.242;10.438;2022-11-20T04:45:29;13.23;;;8.10;;
18505;SDS011;9382;53.242;10.438;2022-11-20T04:47:58;14.50;;;8.00;;
18505;SDS011;9382;53.242;10.438;2022-11-20T04:50:25;12.57;;;8.23;;
18505;SDS011;9382;53.242;10.438;2022-11-20T04:52:51;14.07;;;8.47;;
18505;SDS011;9382;53.242;10.438;2022-11-20T04:55:18;12.13;;;8.20;;
18505;SDS011;9382;53.242;10.438;2022-11-20T04:57:45;15.73;;;9.07;;
18505;SDS011;9382;53.242;10.438;2022-11-20T05:00:17;12.07;;;7.97;;
18505;SDS011;9382;53.242;10.438;2022-11-20T05:02:44;13.27;;;8.47;;
18505;SDS011;9382;53.242;10.438;2022-11-20T05:05:10;14.33;;;8.47;;
18505;SDS011;9382;53.242;10.438;2022-11-20T05:07:37;12.80;;;8.73;;
18505;SDS011;9382;53.242;10.438;2022-11-20T05:10:04;14.17;;;8.90;;
18505;SDS011;9382;53.242;10.438;2022-11-20T05:12:32;13.50;;;8.80;;
18505;SDS011;9382;53.242;10.438;2022-11-20T05:14:58;12.77;;;8.87;;
18505;SDS011;9382;53.242;10.438;2022-11-20T05:17:26;14.00;;;9.00;;
18505;SDS011;9382;53.242;10.438;2022-11-20T05:19:53;11.93;;;8.53;;
18505;SDS011;9382;53.242;10.438;2022-11-20T05:22:20;12.40;;;8.53;;
18505;SDS011;9382;53.242;10.438;2022-11-20T05:24:47;13.43;;;8.63;;
18505;SDS011;9382;53.242;10.438;2022-11-20T05:27:14;14.03;;;8.70;;
18505;SDS011;9382;53.242;10.438;2022-11-20T05:29:40;15.00;;;8.40;;
18505;SDS011;9382;53.242;10.438;2022-11-20T05:32:07;14.67;;;8.57;;
18505;SDS011;9382;53.242;10.438;2022-11-20T05:34:36;16.23;;;9.37;;
18505;SDS011;9382;53.242;10.438;2022-11-20T05:37:02;14.87;;;8.80;;
18505;SDS011;9382;53.242;10.438;2022-11-20T05:39:29;13.83;;;9.20;;
18505;SDS011;9382;53.242;10.438;2022-11-20T05:41:56;16.43;;;10.00;;
18505;SDS011;9382;53.242;10.438;2022-11-20T05:44:37;18.33;;;9.63;;
18505;SDS011;9382;53.242;10.438;2022-11-20T05:47:03;15.27;;;9.53;;
18505;SDS011;9382;53.242;10.438;2022-11-20T05:49:30;13.70;;;9.30;;
18505;SDS011;9382;53.242;10.438;2022-11-20T05:51:58;15.23;;;9.67;;
18505;SDS011;9382;53.242;10.438;2022-11-20T05:54:25;15.80;;;10.43;;
18505;SDS011;9382;53.242;10.438;2022-11-20T05:56:52;14.83;;;9.70;;
18505;SDS011;9382;53.242;10.438;2022-11-20T05:59:18;18.43;;;10.63;;
18505;SDS011;9382;53.242;10.438;2022-11-20T06:01:45;16.53;;;9.73;;
18505;SDS011;9382;53.242;10.438;2022-11-20T06:04:12;19.00;;;10.77;;
18505;SDS011;9382;53.242;10.438;2022-11-20T06:06:39;19.33;;;10.87;;
18505;SDS011;9382;53.242;10.438;2022-11-20T06:09:07;17.43;;;11.43;;
18505;SDS011;9382;53.242;10.438;2022-11-20T06:11:34;15.73;;;10.20;;
18505;SDS011;9382;53.242;10.438;2022-11-20T06:14:00;17.37;;;11.13;;
18505;SDS011;9382;53.242;10.438;2022-11-20T06:16:27;16.70;;;10.60;;
18505;SDS011;9382;53.242;10.438;2022-11-20T06:18:54;18.90;;;11.60;;
18505;SDS011;9382;53.242;10.438;2022-11-20T06:21:21;18.40;;;11.70;;
18505;SDS011;9382;53.242;10.438;2022-11-20T06:23:49;17.80;;;11.37;;
18505;SDS011;9382;53.242;10.438;2022-11-20T06:26:18;19.20;;;11.93;;
18505;SDS011;9382;53.242;10.438;2022-11-20T06:28:47;21.50;;;12.40;;
18505;SDS011;9382;53.242;10.438;2022-11-20T06:31:14;19.23;;;12.03;;
18505;SDS011;9382;53.242;10.438;2022-11-20T06:33:42;20.07;;;12.97;;
18505;SDS011;9382;53.242;10.438;2022-11-20T06:36:10;20.83;;;13.10;;
18505;SDS011;9382;53.242;10.438;2022-11-20T06:38:38;21.70;;;13.40;;
18505;SDS011;9382;53.242;10.438;2022-11-20T06:41:05;19.90;;;12.37;;
18505;SDS011;9382;53.242;10.438;2022-11-20T06:43:34;24.47;;;14.83;;
18505;SDS011;9382;53.242;10.438;2022-11-20T06:46:00;29.93;;;15.10;;
18505;SDS011;9382;53.242;10.438;2022-11-20T06:48:27;28.83;;;16.10;;
18505;SDS011;9382;53.242;10.438;2022-11-20T06:50:55;27.60;;;15.17;;
18505;SDS011;9382;53.242;10.438;2022-11-20T06:53:22;26.37;;;14.07;;
18505;SDS011;9382;53.242;10.438;2022-11-20T06:55:49;27.30;;;14.93;;
18505;SDS011;9382;53.242;10.438;2022-11-20T06:58:16;25.97;;;15.00;;
18505;SDS011;9382;53.242;10.438;2022-11-20T07:00:45;25.00;;;14.83;;
18505;SDS011;9382;53.242;10.438;2022-11-20T07:03:12;26.13;;;15.50;;
18505;SDS011;9382;53.242;10.438;2022-11-20T07:05:39;22.53;;;13.80;;
18505;SDS011;9382;53.242;10.438;2022-11-20T07:08:06;25.60;;;14.50;;
18505;SDS011;9382;53.242;10.438;2022-11-20T07:10:34;23.57;;;14.97;;
18505;SDS011;9382;53.242;10.438;2022-11-20T07:13:01;25.20;;;14.40;;
18505;SDS011;9382;53.242;10.438;2022-11-20T07:15:28;25.77;;;14.67;;
18505;SDS011;9382;53.242;10.438;2022-11-20T07:17:57;29.87;;;15.33;;
18505;SDS011;9382;53.242;10.438;2022-11-20T07:20:24;27.57;;;15.30;;
18505;SDS011;9382;53.242;10.438;2022-11-20T07:22:52;26.77;;;15.73;;
18505;SDS011;9382;53.242;10.438;2022-11-20T07:25:20;27.37;;;16.70;;
18505;SDS011;9382;53.242;10.438;2022-11-20T07:27:47;25.70;;;15.37;;
18505;SDS011;9382;53.242;10.438;2022-11-20T07:30:14;26.47;;;16.60;;
18505;SDS011;9382;53.242;10.438;2022-11-20T07:32:41;26.30;;;15.97;;
18505;SDS011;9382;53.242;10.438;2022-11-20T07:35:09;30.37;;;16.80;;
18505;SDS011;9382;53.242;10.438;2022-11-20T07:37:36;30.87;;;16.93;;
18505;SDS011;9382;53.242;10.438;2022-11-20T07:40:03;28.83;;;16.53;;
18505;SDS011;9382;53.242;10.438;2022-11-20T07:42:30;30.23;;;16.63;;
18505;SDS011;9382;53.242;10.438;2022-11-20T07:44:57;29.13;;;16.70;;
18505;SDS011;9382;53.242;10.438;2022-11-20T07:47:24;29.20;;;16.47;;
18505;SDS011;9382;53.242;10.438;2022-11-20T07:49:51;27.37;;;15.93;;
18505;SDS011;9382;53.242;10.438;2022-11-20T07:52:19;27.93;;;16.53;;
18505;SDS011;9382;53.242;10.438;2022-11-20T07:54:45;29.37;;;16.20;;
18505;SDS011;9382;53.242;10.438;2022-11-20T07:57:12;27.47;;;15.73;;
18505;SDS011;9382;53.242;10.438;2022-11-20T07:59:39;26.57;;;15.40;;
18505;SDS011;9382;53.242;10.438;2022-11-20T08:02:05;24.70;;;15.57;;
18505;SDS011;9382;53.242;10.438;2022-11-20T08:04:35;29.60;;;16.37;;
18505;SDS011;9382;53.242;10.438;2022-11-20T08:07:02;31.10;;;17.83;;
18505;SDS011;9382;53.242;10.438;2022-11-20T08:09:30;31.40;;;18.70;;
18505;SDS011;9382;53.242;10.438;2022-11-20T08:11:57;32.20;;;18.63;;
18505;SDS011;9382;53.242;10.438;2022-11-20T08:14:41;30.40;;;17.67;;
18505;SDS011;9382;53.242;10.438;2022-11-20T08:17:08;27.10;;;16.20;;
18505;SDS011;9382;53.242;10.438;2022-11-20T08:19:35;26.47;;;15.37;;
18505;SDS011;9382;53.242;10.438;2022-11-20T08:22:02;26.67;;;15.70;;
18505;SDS011;9382;53.242;10.438;2022-11-20T08:24:30;28.67;;;16.27;;
18505;SDS011;9382;53.242;10.438;2022-11-20T08:26:57;26.27;;;15.93;;
18505;SDS011;9382;53.242;10.438;2022-11-20T08:29:24;25.53;;;15.20;;
18505;SDS011;9382;53.242;10.438;2022-11-20T08:31:50;27.67;;;15.70;;
18505;SDS011;9382;53.242;10.438;2022-11-20T08:34:17;22.50;;;14.10;;
18505;SDS011;9382;53.242;10.438;2022-11-20T08:36:44;23.50;;;13.97;;
18505;SDS011;9382;53.242;10.438;2022-11-20T08:39:11;23.07;;;14.37;;
18505;SDS011;9382;53.242;10.438;2022-11-20T08:41:40;22.60;;;13.83;;
18505;SDS011;9382;53.242;10.438;2022-11-20T08:44:06;22.17;;;13.47;;
18505;SDS011;9382;53.242;10.438;2022-11-20T08:46:34;22.13;;;13.80;;
18505;SDS011;9382;53.242;10.438;2022-11-20T08:49:02;19.10;;;13.30;;
18505;SDS011;9382;53.242;10.438;2022-11-20T08:51:29;19.67;;;13.33;;
18505;SDS011;9382;53.242;10.438;2022-11-20T08:53:56;18.80;;;11.97;;
18505;SDS011;9382;53.242;10.438;2022-11-20T08:56:23;19.70;;;12.60;;
18505;SDS011;9382;53.242;10.438;2022-11-20T08:58:51;18.03;;;12.90;;
18505;SDS011;9382;53.242;10.438;2022-11-20T09:01:18;17.77;;;12.47;;
18505;SDS011;9382;53.242;10.438;2022-11-20T09:03:46;17.83;;;12.63;;
18505;SDS011;9382;53.242;10.438;2022-11-20T09:06:13;22.90;;;13.60;;
18505;SDS011;9382;53.242;10.438;2022-11-20T09:08:40;20.87;;;12.40;;
18505;SDS011;9382;53.242;10.438;2022-11-20T09:11:06;20.60;;;13.17;;
18505;SDS011;9382;53.242;10.438;2022-11-20T09:13:34;20.43;;;12.57;;
18505;SDS011;9382;53.242;10.438;2022-11-20T09:16:04;16.70;;;10.47;;
18505;SDS011;9382;53.242;10.438;2022-11-20T09:18:33;19.47;;;11.00;;
18505;SDS011;9382;53.242;10.438;2022-11-20T09:21:01;15.23;;;10.60;;
18505;SDS011;9382;53.242;10.438;2022-11-20T09:23:31;13.67;;;10.13;;
18505;SDS011;9382;53.242;10.438;2022-11-20T09:26:01;15.10;;;10.27;;
18505;SDS011;9382;53.242;10.438;2022-11-20T09:28:29;13.10;;;9.43;;
18505;SDS011;9382;53.242;10.438;2022-11-20T09:30:56;13.50;;;9.67;;
18505;SDS011;9382;53.242;10.438;2022-11-20T09:33:24;13.83;;;9.53;;
18505;SDS011;9382;53.242;10.438;2022-11-20T09:35:50;11.73;;;9.17;;
18505;SDS011;9382;53.242;10.438;2022-11-20T09:38:17;12.03;;;8.73;;
18505;SDS011;9382;53.242;10.438;2022-11-20T09:40:45;14.07;;;9.40;;
18505;SDS011;9382;53.242;10.438;2022-11-20T09:43:18;16.00;;;10.00;;
18505;SDS011;9382;53.242;10.438;2022-11-20T09:45:54;13.83;;;9.93;;
18505;SDS011;9382;53.242;10.438;2022-11-20T09:48:39;15.50;;;10.10;;
18505;SDS011;9382;53.242;10.438;2022-11-20T09:51:17;16.73;;;10.73;;
18505;SDS011;9382;53.242;10.438;2022-11-20T09:53:55;15.13;;;11.07;;
18505;SDS011;9382;53.242;10.438;2022-11-20T09:56:35;18.17;;;11.90;;
18505;SDS011;9382;53.242;10.438;2022-11-20T09:59:05;16.63;;;11.10;;
18505;SDS011;9382;53.242;10.438;2022-11-20T10:01:34;18.17;;;12.23;;
18505;SDS011;9382;53.242;10.438;2022-11-20T10:04:09;15.87;;;11.50;;
18505;SDS011;9382;53.242;10.438;2022-11-20T10:06:42;18.23;;;12.53;;
18505;SDS011;9382;53.242;10.438;2022-11-20T10:09:20;18.10;;;12.27;;
18505;SDS011;9382;53.242;10.438;2022-11-20T10:11:56;15.43;;;11.47;;
18505;SDS011;9382;53.242;10.438;2022-11-20T10:14:34;18.07;;;11.37;;
18505;SDS011;9382;53.242;10.438;2022-11-20T10:17:09;19.83;;;12.33;;
18505;SDS011;9382;53.242;10.438;2022-11-20T10:19:51;14.63;;;10.23;;
18505;SDS011;9382;53.242;10.438;2022-11-20T10:22:29;18.60;;;12.00;;
18505;SDS011;9382;53.242;10.438;2022-11-20T10:25:10;17.37;;;10.33;;
18505;SDS011;9382;53.242;10.438;2022-11-20T10:27:47;11.30;;;9.07;;
18505;SDS011;9382;53.242;10.438;2022-11-20T10:30:38;13.57;;;9.73;;
18505;SDS011;9382;53.242;10.438;2022-11-20T10:33:11;11.77;;;8.53;;
18505;SDS011;9382;53.242;10.438;2022-11-20T10:35:44;14.80;;;9.23;;
18505;SDS011;9382;53.242;10.438;2022-11-20T10:38:15;13.23;;;9.03;;
18505;SDS011;9382;53.242;10.438;2022-11-20T10:40:46;12.80;;;8.97;;
18505;SDS011;9382;53.242;10.438;2022-11-20T10:43:18;13.37;;;9.03;;
18505;SDS011;9382;53.242;10.438;2022-11-20T10:45:52;10.43;;;8.40;;
18505;SDS011;9382;53.242;10.438;2022-11-20T10:48:23;11.40;;;8.30;;
18505;SDS011;9382;53.242;10.438;2022-11-20T10:50:57;11.07;;;8.67;;
18505;SDS011;9382;53.242;10.438;2022-11-20T10:53:42;11.60;;;8.37;;
18505;SDS011;9382;53.242;10.438;2022-11-20T10:56:19;11.23;;;8.50;;
18505;SDS011;9382;53.242;10.438;2022-11-20T10:58:52;9.27;;;7.53;;
18505;SDS011;9382;53.242;10.438;2022-11-20T11:01:28;10.63;;;8.13;;
18505;SDS011;9382;53.242;10.438;2022-11-20T11:03:55;9.63;;;7.67;;
18505;SDS011;9382;53.242;10.438;2022-11-20T11:06:25;11.37;;;8.07;;
18505;SDS011;9382;53.242;10.438;2022-11-20T11:08:58;10.00;;;7.70;;
18505;SDS011;9382;53.242;10.438;2022-11-20T11:11:29;9.23;;;7.67;;
18505;SDS011;9382;53.242;10.438;2022-11-20T11:14:04;10.87;;;8.37;;
18505;SDS011;9382;53.242;10.438;2022-11-20T11:16:31;13.73;;;10.43;;
18505;SDS011;9382;53.242;10.438;2022-11-20T11:19:03;10.17;;;7.63;;
18505;SDS011;9382;53.242;10.438;2022-11-20T11:21:32;8.50;;;7.17;;
18505;SDS011;9382;53.242;10.438;2022-11-20T11:23:59;9.90;;;7.57;;
18505;SDS011;9382;53.242;10.438;2022-11-20T11:26:27;9.37;;;7.60;;
18505;SDS011;9382;53.242;10.438;2022-11-20T11:28:54;9.73;;;7.80;;
18505;SDS011;9382;53.242;10.438;2022-11-20T11:31:22;10.07;;;7.30;;
18505;SDS011;9382;53.242;10.438;2022-11-20T11:33:50;8.67;;;6.80;;
18505;SDS011;9382;53.242;10.438;2022-11-20T11:36:17;7.50;;;6.40;;
18505;SDS011;9382;53.242;10.438;2022-11-20T11:38:51;6.90;;;6.00;;
18505;SDS011;9382;53.242;10.438;2022-11-20T11:41:20;6.50;;;5.80;;
18505;SDS011;9382;53.242;10.438;2022-11-20T11:43:51;6.43;;;5.77;;
18505;SDS011;9382;53.242;10.438;2022-11-20T11:46:36;7.40;;;6.00;;
18505;SDS011;9382;53.242;10.438;2022-11-20T11:49:11;7.17;;;5.03;;
18505;SDS011;9382;53.242;10.438;2022-11-20T11:51:47;5.80;;;5.10;;
18505;SDS011;9382;53.242;10.438;2022-11-20T11:54:28;7.07;;;4.77;;
18505;SDS011;9382;53.242;10.438;2022-11-20T11:57:01;5.33;;;4.67;;
18505;SDS011;9382;53.242;10.438;2022-11-20T11:59:33;6.10;;;5.50;;
18505;SDS011;9382;53.242;10.438;2022-11-20T12:02:15;9.33;;;6.80;;
18505;SDS011;9382;53.242;10.438;2022-11-20T12:04:57;7.07;;;5.30;;
18505;SDS011;9382;53.242;10.438;2022-11-20T12:07:30;5.97;;;5.07;;
18505;SDS011;9382;53.242;10.438;2022-11-20T12:10:08;5.90;;;5.20;;
18505;SDS011;9382;53.242;10.438;2022-11-20T12:12:43;6.17;;;4.93;;
18505;SDS011;9382;53.242;10.438;2022-11-20T12:15:16;6.17;;;5.53;;
18505;SDS011;9382;53.242;10.438;2022-11-20T12:17:56;6.00;;;5.40;;
18505;SDS011;9382;53.242;10.438;2022-11-20T12:20:24;6.03;;;4.90;;
18505;SDS011;9382;53.242;10.438;2022-11-20T12:22:56;5.03;;;4.50;;
18505;SDS011;9382;53.242;10.438;2022-11-20T12:25:30;4.47;;;3.97;;
18505;SDS011;9382;53.242;10.438;2022-11-20T12:31:07;4.73;;;4.00;;
18505;SDS011;9382;53.242;10.438;2022-11-20T12:33:55;4.10;;;3.77;;
18505;SDS011;9382;53.242;10.438;2022-11-20T12:36:32;4.40;;;4.00;;
18505;SDS011;9382;53.242;10.438;2022-11-20T12:39:13;5.33;;;4.27;;
18505;SDS011;9382;53.242;10.438;2022-11-20T12:42:00;4.73;;;4.33;;
18505;SDS011;9382;53.242;10.438;2022-11-20T12:45:20;4.93;;;4.53;;
18505;SDS011;9382;53.242;10.438;2022-11-20T12:48:06;5.90;;;5.30;;
18505;SDS011;9382;53.242;10.438;2022-11-20T12:51:09;7.20;;;5.43;;
18505;SDS011;9382;53.242;10.438;2022-11-20T12:53:53;9.93;;;6.93;;
18505;SDS011;9382;53.242;10.438;2022-11-20T12:56:32;7.10;;;6.17;;
18505;SDS011;9382;53.242;10.438;2022-11-20T12:59:13;7.13;;;6.00;;
18505;SDS011;9382;53.242;10.438;2022-11-20T13:01:53;7.03;;;6.43;;
18505;SDS011;9382;53.242;10.438;2022-11-20T13:07:18;7.37;;;6.67;;
18505;SDS011;9382;53.242;10.438;2022-11-20T13:09:47;7.67;;;6.90;;
18505;SDS011;9382;53.242;10.438;2022-11-20T13:12:17;7.47;;;6.77;;
18505;SDS011;9382;53.242;10.438;2022-11-20T13:14:53;9.03;;;6.60;;
18505;SDS011;9382;53.242;10.438;2022-11-20T13:17:24;8.70;;;6.67;;
18505;SDS011;9382;53.242;10.438;2022-11-20T13:19:56;7.87;;;7.13;;
18505;SDS011;9382;53.242;10.438;2022-11-20T13:22:24;7.50;;;6.80;;
18505;SDS011;9382;53.242;10.438;2022-11-20T13:24:52;9.13;;;7.00;;
18505;SDS011;9382;53.242;10.438;2022-11-20T13:27:19;8.23;;;7.43;;
18505;SDS011;9382;53.242;10.438;2022-11-20T13:30:00;8.13;;;7.33;;
18505;SDS011;9382;53.242;10.438;2022-11-20T13:32:47;8.03;;;7.23;;
18505;SDS011;9382;53.242;10.438;2022-11-20T13:35:23;8.67;;;7.77;;
18505;SDS011;9382;53.242;10.438;2022-11-20T13:37:59;9.33;;;7.00;;
18505;SDS011;9382;53.242;10.438;2022-11-20T13:40:27;7.80;;;7.10;;
18505;SDS011;9382;53.242;10.438;2022-11-20T13:43:01;7.70;;;6.67;;
18505;SDS011;9382;53.242;10.438;2022-11-20T13:45:55;7.57;;;6.77;;
18505;SDS011;9382;53.242;10.438;2022-11-20T13:48:26;8.60;;;6.63;;
18505;SDS011;9382;53.242;10.438;2022-11-20T13:50:59;7.97;;;6.70;;
18505;SDS011;9382;53.242;10.438;2022-11-20T13:53:36;7.57;;;6.57;;
18505;SDS011;9382;53.242;10.438;2022-11-20T13:56:20;8.07;;;7.27;;
18505;SDS011;9382;53.242;10.438;2022-11-20T13:58:56;8.57;;;7.43;;
18505;SDS011;9382;53.242;10.438;2022-11-20T14:01:31;7.57;;;6.70;;
18505;SDS011;9382;53.242;10.438;2022-11-20T14:03:59;7.97;;;7.13;;
18505;SDS011;9382;53.242;10.438;2022-11-20T14:06:33;6.10;;;5.60;;
18505;SDS011;9382;53.242;10.438;2022-11-20T14:09:10;6.50;;;5.80;;
18505;SDS011;9382;53.242;10.438;2022-11-20T14:11:45;6.60;;;5.60;;
18505;SDS011;9382;53.242;10.438;2022-11-20T14:14:13;6.73;;;6.10;;
18505;SDS011;9382;53.242;10.438;2022-11-20T14:16:43;5.90;;;5.30;;
18505;SDS011;9382;53.242;10.438;2022-11-20T14:19:26;6.17;;;5.40;;
18505;SDS011;9382;53.242;10.438;2022-11-20T14:22:06;5.97;;;5.33;;
18505;SDS011;9382;53.242;10.438;2022-11-20T14:24:35;6.50;;;5.90;;
18505;SDS011;9382;53.242;10.438;2022-11-20T14:27:02;5.93;;;5.33;;
18505;SDS011;9382;53.242;10.438;2022-11-20T14:29:30;6.07;;;5.40;;
18505;SDS011;9382;53.242;10.438;2022-11-20T14:32:02;6.60;;;5.63;;
18505;SDS011;9382;53.242;10.438;2022-11-20T14:34:30;6.00;;;5.40;;
18505;SDS011;9382;53.242;10.438;2022-11-20T14:36:59;6.63;;;5.60;;
18505;SDS011;9382;53.242;10.438;2022-11-20T14:39:29;7.93;;;5.93;;
18505;SDS011;9382;53.242;10.438;2022-11-20T14:41:58;6.30;;;5.70;;
18505;SDS011;9382;53.242;10.438;2022-11-20T14:44:26;6.10;;;5.50;;
18505;SDS011;9382;53.242;10.438;2022-11-20T14:46:55;7.53;;;5.80;;
18505;SDS011;9382;53.242;10.438;2022-11-20T14:49:25;9.27;;;5.73;;
18505;SDS011;9382;53.242;10.438;2022-11-20T14:51:58;6.77;;;5.93;;
18505;SDS011;9382;53.242;10.438;2022-11-20T14:54:26;11.83;;;7.13;;
18505;SDS011;9382;53.242;10.438;2022-11-20T14:56:54;10.53;;;6.83;;